Time;durP1;ratioP1;P1;durP2;ratioP2;P2;SDS_P1;SDS_P2;PMS_P1;PMS_P2;Temp;Humidity;BMP_temperature;BMP_pressure;BME280_temperature;BME280_humidity;BME280_pressure;Samples;Min_cycle;Max_cycle;Signal;HPM_P1;HPM_P2
2021/10/28 00:12:39;;;;;;;20.17;15.07;;;;;;;10.31;64.78;100651.38;5012711;28;20066;-77
2021/10/28 00:15:09;;;;;;;22.90;14.68;;;;;;;9.82;64.78;100593.59;5012878;28;20514;-77
2021/10/28 00:18:04;;;;;;;18.00;14.40;;;;;;;10.06;65.04;100634.41;5012655;28;20026;-77
2021/10/28 00:20:33;;;;;;;20.20;14.77;;;;;;;9.86;64.79;100610.78;5012714;28;20022;-77
2021/10/28 00:22:59;;;;;;;16.67;13.15;;;;;;;9.93;64.77;100629.50;4995111;28;20034;-77
2021/10/28 00:25:25;;;;;;;18.92;13.60;;;;;;;10.02;64.76;100655.00;5012756;28;20025;-77
2021/10/28 00:27:51;;;;;;;15.95;12.77;;;;;;;9.97;64.80;100657.25;5012594;28;20101;-77
2021/10/28 00:30:19;;;;;;;15.30;12.75;;;;;;;9.86;65.16;100633.69;5012507;28;20030;-77
2021/10/28 00:32:45;;;;;;;16.00;12.50;;;;;;;9.85;64.91;100653.97;5012231;28;20072;-77
2021/10/28 00:35:11;;;;;;;15.80;13.30;;;;;;;9.75;65.36;100641.81;4994846;28;20017;-77
2021/10/28 00:37:37;;;;;;;15.40;12.00;;;;;;;9.72;64.98;100645.56;5012547;28;20153;-76
2021/10/28 00:40:08;;;;;;;15.80;12.07;;;;;;;9.69;64.84;100648.50;5012541;28;20430;-76
2021/10/28 00:42:35;;;;;;;16.38;11.55;;;;;;;9.64;65.24;100641.97;4994693;28;20576;-77
2021/10/28 00:45:04;;;;;;;14.13;11.93;;;;;;;9.12;65.04;100562.53;4994530;28;20018;-76
2021/10/28 00:47:34;;;;;;;15.07;12.25;;;;;;;9.12;65.12;100578.34;4994344;28;20460;-77
2021/10/28 00:50:00;;;;;;;17.38;12.60;;;;;;;8.88;64.73;100550.66;5012001;28;20022;-76
2021/10/28 00:52:26;;;;;;;14.93;11.25;;;;;;;9.03;65.10;100577.41;5012221;28;20479;-77
2021/10/28 00:54:52;;;;;;;14.55;11.70;;;;;;;9.53;64.97;100642.97;5012017;28;20033;-77
2021/10/28 00:57:18;;;;;;;15.02;12.15;;;;;;;8.97;64.66;100540.25;5012173;28;20603;-77
2021/10/28 00:59:43;;;;;;;14.65;11.88;;;;;;;9.49;64.83;100631.88;5012198;28;20053;-77
2021/10/28 01:02:08;;;;;;;14.38;11.63;;;;;;;9.29;64.90;100606.56;5012052;28;20014;-77
2021/10/28 01:04:34;;;;;;;14.38;11.63;;;;;;;9.29;64.73;100603.94;5011826;28;20028;-77
2021/10/28 01:07:00;;;;;;;13.90;10.52;;;;;;;9.11;65.08;100605.66;5011973;28;20048;-77
2021/10/28 01:09:25;;;;;;;16.60;12.90;;;;;;;9.33;64.82;100631.66;5011797;28;20418;-76
2021/10/28 01:11:53;;;;;;;13.90;11.95;;;;;;;9.31;64.78;100630.16;5011880;28;20026;-77
2021/10/28 01:14:21;;;;;;;14.38;12.57;;;;;;;9.32;64.75;100624.75;4994157;28;20112;-77
2021/10/28 01:16:47;;;;;;;14.10;12.60;;;;;;;9.00;64.79;100576.84;5011658;28;20473;-77
2021/10/28 01:19:13;;;;;;;15.57;11.90;;;;;;;9.18;64.74;100604.13;5011731;28;20033;-77
2021/10/28 01:21:38;;;;;;;16.02;13.38;;;;;;;9.31;64.53;100633.63;5011604;28;20080;-77
2021/10/28 01:24:04;;;;;;;16.45;11.70;;;;;;;8.89;64.62;100576.00;5011693;28;20076;-77
2021/10/28 01:26:29;;;;;;;17.25;12.88;;;;;;;8.79;64.86;100554.13;5011438;28;20042;-77
2021/10/28 01:28:58;;;;;;;18.20;12.43;;;;;;;8.66;64.63;100542.25;5011515;28;20028;-76
2021/10/28 01:31:26;;;;;;;17.30;13.85;;;;;;;9.27;64.58;100628.78;5011573;28;20469;-77
2021/10/28 01:33:54;;;;;;;20.25;13.93;;;;;;;9.28;64.47;100631.28;4993929;28;20026;-77
2021/10/28 01:36:22;;;;;;;17.88;12.73;;;;;;;9.28;64.45;100640.97;5011554;28;20025;-77
2021/10/28 01:38:48;;;;;;;18.77;14.98;;;;;;;9.22;64.49;100624.75;5013466;28;20026;-77
2021/10/28 01:41:15;;;;;;;19.60;14.52;;;;;;;9.01;64.16;100594.31;5017975;28;20493;-76
2021/10/28 01:43:41;;;;;;;22.98;17.75;;;;;;;9.17;64.14;100610.34;5000287;28;20050;-77
2021/10/28 01:46:06;;;;;;;19.13;14.13;;;;;;;9.17;64.21;100605.09;5018028;28;20024;-76
2021/10/28 01:48:32;;;;;;;20.08;13.90;;;;;;;9.01;63.96;100574.06;5018100;28;20116;-77
2021/10/28 01:50:59;;;;;;;16.88;13.88;;;;;;;8.77;63.74;100560.50;5000327;28;20426;-77
2021/10/28 01:53:24;;;;;;;18.80;13.07;;;;;;;9.19;64.34;100626.84;5017780;28;20037;-77
2021/10/28 01:55:50;;;;;;;16.92;13.23;;;;;;;9.32;63.81;100634.44;5017997;28;20025;-76
2021/10/28 01:58:22;;;;;;;15.55;13.32;;;;;;;8.86;64.13;100586.84;5017845;28;20021;-76
2021/10/28 02:00:49;;;;;;;17.98;12.85;;;;;;;9.23;64.09;100639.59;5017954;28;20029;-77
2021/10/28 02:03:14;;;;;;;17.52;13.43;;;;;;;8.87;63.92;100590.28;5017969;28;20113;-76
2021/10/28 02:05:40;;;;;;;17.52;13.23;;;;;;;9.20;64.23;100644.31;5017788;28;20036;-76
2021/10/28 02:08:06;;;;;;;16.52;13.35;;;;;;;8.83;64.04;100591.53;5017673;28;20470;-77
2021/10/28 02:10:31;;;;;;;16.63;13.30;;;;;;;8.64;63.80;100565.25;5017785;28;20033;-75
2021/10/28 02:12:58;;;;;;;18.20;12.68;;;;;;;9.13;64.23;100643.22;5017800;28;20030;-77
2021/10/28 02:15:25;;;;;;;15.07;12.35;;;;;;;9.13;64.15;100637.97;5017862;28;20061;-77
2021/10/28 02:17:51;;;;;;;16.15;13.38;;;;;;;9.15;63.96;100636.84;5000013;28;20033;-77
2021/10/28 02:20:17;;;;;;;14.82;12.45;;;;;;;9.12;64.07;100633.66;5017566;28;20034;-76
2021/10/28 02:22:43;;;;;;;39.97;24.98;;;;;;;8.75;63.96;100587.00;5017567;28;20025;-76
2021/10/28 02:25:11;;;;;;;18.90;13.40;;;;;;;8.46;63.91;100557.22;5017708;28;20068;-76
2021/10/28 02:27:39;;;;;;;19.20;13.48;;;;;;;8.95;64.07;100632.59;5017697;28;20056;-76
2021/10/28 02:30:08;;;;;;;15.93;12.27;;;;;;;8.91;63.90;100634.63;5017423;28;20022;-76
2021/10/28 02:32:34;;;;;;;16.45;13.77;;;;;;;8.89;64.17;100639.22;5017536;28;20109;-76
2021/10/28 02:35:00;;;;;;;17.98;14.52;;;;;;;8.72;64.42;100608.34;5017518;28;20112;-77
2021/10/28 02:37:27;;;;;;;17.52;13.50;;;;;;;8.83;64.75;100636.31;4999764;28;20034;-77
2021/10/28 02:39:52;;;;;;;19.77;14.80;;;;;;;8.79;64.34;100638.41;5017303;28;20033;-76
2021/10/28 02:42:18;;;;;;;19.98;15.02;;;;;;;8.75;64.23;100642.28;5017484;28;20415;-76
2021/10/28 02:44:44;;;;;;;21.77;13.68;;;;;;;8.22;63.99;100568.97;5017608;28;20026;-76
2021/10/28 02:47:10;;;;;;;19.05;15.65;;;;;;;8.08;64.34;100547.47;5017724;28;20092;-76
2021/10/28 02:49:36;;;;;;;18.05;14.27;;;;;;;8.72;64.38;100647.81;4999078;28;20414;-76
2021/10/28 02:52:02;;;;;;;18.08;14.88;;;;;;;8.32;64.14;100586.56;5013206;28;20033;-76
2021/10/28 02:54:27;;;;;;;18.52;13.73;;;;;;;8.40;64.51;100602.53;5014303;28;20088;-76
2021/10/28 02:56:52;;;;;;;16.20;14.43;;;;;;;8.39;64.54;100601.69;4996606;28;20030;-77
2021/10/28 02:59:18;;;;;;;16.30;14.02;;;;;;;7.99;64.21;100533.34;5014222;28;20495;-76
2021/10/28 03:01:48;;;;;;;19.75;15.85;;;;;;;8.68;64.17;100651.72;5014161;28;20022;-76
2021/10/28 03:04:16;;;;;;;16.67;14.52;;;;;;;8.33;64.36;100601.38;5014101;28;20053;-77
2021/10/28 03:06:42;;;;;;;18.23;14.27;;;;;;;8.09;64.62;100567.53;5014304;28;20448;-76
2021/10/28 03:09:11;;;;;;;17.23;14.63;;;;;;;8.24;64.43;100595.97;5014013;28;20221;-78
2021/10/28 03:11:37;;;;;;;16.52;13.63;;;;;;;8.63;64.22;100661.81;5014013;28;20030;-76
2021/10/28 03:14:03;;;;;;;18.40;14.48;;;;;;;8.53;64.84;100647.81;5013983;28;20026;-76
2021/10/28 03:16:37;;;;;;;18.73;14.52;;;;;;;8.56;64.62;100653.66;4996254;28;20495;-77
2021/10/28 03:27:00;;;;;;;16.85;13.27;;;;;;;8.38;64.53;100646.56;5013859;28;20091;-77
2021/10/28 03:29:25;;;;;;;17.85;14.00;;;;;;;8.42;64.28;100656.69;5013463;28;20030;-76
2021/10/28 03:31:51;;;;;;;17.25;13.57;;;;;;;8.17;64.50;100629.03;4995777;28;20028;-76
2021/10/28 03:34:16;;;;;;;15.55;13.45;;;;;;;8.17;64.07;100633.47;4995682;28;20032;-77
2021/10/28 03:42:29;;;;;;;21.17;15.82;;;;;;;8.47;64.15;100674.69;5006406;28;20042;-77
2021/10/28 03:45:27;;;;;;;20.65;16.80;;;;;;;8.00;64.06;100571.81;5013083;28;20029;-74
2021/10/28 04:20:32;;;;;;;31.90;24.15;;;;;;;8.22;63.07;100650.53;5012645;28;20037;-78
2021/10/28 04:31:11;;;;;;;37.33;26.52;;;;;;;8.40;62.74;100676.22;5012784;28;20575;-78
2021/10/28 04:33:41;;;;;;;33.20;24.20;;;;;;;8.54;63.23;100707.41;5012287;28;20112;-77
2021/10/28 04:36:07;;;;;;;25.45;20.55;;;;;;;8.28;62.63;100664.94;5012662;28;20083;-78
2021/10/28 04:38:32;;;;;;;32.15;23.77;;;;;;;8.24;62.46;100658.28;5012455;28;20029;-78
2021/10/28 04:40:58;;;;;;;32.28;24.80;;;;;;;8.50;62.91;100696.31;5012383;28;20532;-78
2021/10/28 04:43:23;;;;;;;37.67;27.90;;;;;;;8.52;62.19;100704.06;5012355;28;20025;-78
2021/10/28 04:45:49;;;;;;;34.50;28.17;;;;;;;8.49;62.56;100693.81;4994524;28;20547;-78
2021/10/28 04:48:14;;;;;;;39.05;29.20;;;;;;;8.53;62.14;100703.94;5012456;28;20033;-77
2021/10/28 04:50:39;;;;;;;34.55;27.77;;;;;;;8.11;62.23;100650.63;5012116;28;20052;-78
2021/10/28 04:53:05;;;;;;;37.17;29.85;;;;;;;8.40;62.40;100700.72;4994313;28;20105;-78
2021/10/28 04:55:30;;;;;;;44.70;30.95;;;;;;;8.49;62.25;100709.59;4994375;28;20180;-77
2021/10/28 04:57:56;;;;;;;51.10;39.08;;;;;;;8.49;61.75;100709.59;5011952;28;20033;-78
2021/10/28 05:00:21;;;;;;;52.40;36.60;;;;;;;7.92;62.13;100622.47;5012009;28;20022;-78
2021/10/28 05:02:47;;;;;;;57.45;41.72;;;;;;;8.48;61.97;100721.09;5011952;28;20153;-78
2021/10/28 05:05:12;;;;;;;46.28;36.88;;;;;;;8.47;61.93;100717.63;4994435;28;20040;-77
2021/10/28 05:07:37;;;;;;;39.30;32.40;;;;;;;8.00;61.88;100648.09;5011275;28;20103;-77
2021/10/28 05:10:04;;;;;;;41.40;30.52;;;;;;;8.52;61.85;100714.59;5011586;28;20030;-78
2021/10/28 05:12:29;;;;;;;35.25;27.45;;;;;;;7.94;61.59;100638.94;5011581;28;20418;-76
2021/10/28 05:14:55;;;;;;;33.45;24.70;;;;;;;8.36;61.91;100719.56;5011037;28;20025;-77
2021/10/28 05:17:21;;;;;;;36.45;26.52;;;;;;;7.67;61.83;100622.13;5011232;28;20046;-77
2021/10/28 05:19:46;;;;;;;41.20;29.50;;;;;;;8.23;62.30;100715.34;5011432;28;20100;-77
2021/10/28 05:22:11;;;;;;;41.40;30.17;;;;;;;8.32;62.02;100724.22;4986947;28;20058;-77
2021/10/28 05:24:37;;;;;;;41.28;30.00;;;;;;;7.98;61.88;100678.97;5011412;28;20060;-76
2021/10/28 05:27:03;;;;;;;43.33;32.92;;;;;;;8.46;62.15;100731.75;5011224;28;20061;-76
2021/10/28 05:29:28;;;;;;;45.92;32.33;;;;;;;8.12;61.50;100670.69;5011508;28;20040;-76
2021/10/28 05:31:54;;;;;;;45.88;35.35;;;;;;;8.41;61.34;100712.09;5011244;28;20021;-76
2021/10/28 05:34:20;;;;;;;53.13;38.50;;;;;;;8.60;61.65;100744.53;4993768;28;20022;-77
2021/10/28 05:36:46;;;;;;;48.00;34.40;;;;;;;8.35;61.52;100718.72;5010852;28;20030;-75
2021/10/28 05:39:11;;;;;;;52.30;36.85;;;;;;;8.54;61.52;100731.91;5011466;28;20438;-76
2021/10/28 05:41:37;;;;;;;58.33;39.70;;;;;;;8.59;61.10;100727.06;5011657;28;20032;-76
2021/10/28 05:44:03;;;;;;;57.00;38.40;;;;;;;8.15;61.27;100669.59;4993697;28;20048;-77
2021/10/28 05:46:28;;;;;;;55.63;39.95;;;;;;;8.54;61.10;100717.94;4992524;28;20033;-76
2021/10/28 05:48:53;;;;;;;60.05;42.45;;;;;;;8.64;61.23;100747.72;5010740;28;20033;-76
2021/10/28 05:51:19;;;;;;;66.55;42.92;;;;;;;8.67;61.25;100755.34;5010968;28;20029;-76
2021/10/28 05:53:46;;;;;;;64.78;41.67;;;;;;;8.70;61.48;100751.63;5009959;28;20105;-77
2021/10/28 05:56:11;;;;;;;66.45;48.13;;;;;;;8.29;60.94;100677.97;4993354;28;20483;-77
2021/10/28 05:58:37;;;;;;;65.30;47.28;;;;;;;8.42;61.09;100706.69;5010758;28;20030;-76
2021/10/28 06:01:02;;;;;;;66.97;45.65;;;;;;;8.73;60.77;100744.28;5008728;28;20109;-77
2021/10/28 06:03:29;;;;;;;51.63;40.90;;;;;;;8.82;60.86;100743.47;5009021;28;20026;-76
2021/10/28 06:05:54;;;;;;;53.03;39.85;;;;;;;8.62;60.62;100718.06;5009843;28;20427;-76
2021/10/28 06:08:20;;;;;;;48.88;37.85;;;;;;;8.66;60.79;100706.31;5010603;28;20037;-76
2021/10/28 06:10:45;;;;;;;48.95;35.75;;;;;;;8.68;60.58;100707.00;4993060;28;20029;-76
2021/10/28 06:13:11;;;;;;;48.97;35.05;;;;;;;8.72;60.60;100710.19;5009102;28;20026;-76
2021/10/28 06:15:36;;;;;;;45.50;33.63;;;;;;;8.76;60.92;100722.94;4991827;28;20025;-76
2021/10/28 06:18:24;;;;;;;48.47;37.85;;;;;;;9.14;61.11;100772.19;5010524;28;20042;-77
2021/10/28 06:20:50;;;;;;;48.92;34.58;;;;;;;9.14;60.97;100769.56;5010973;28;20025;-76
2021/10/28 06:23:16;;;;;;;42.45;33.15;;;;;;;8.79;60.67;100701.59;4992977;28;20455;-75
2021/10/28 06:25:42;;;;;;;48.60;36.38;;;;;;;9.29;61.15;100782.31;5012982;28;20105;-76
2021/10/28 06:28:07;;;;;;;42.35;31.45;;;;;;;8.86;61.15;100696.59;4992641;28;20487;-76
2021/10/28 06:30:33;;;;;;;44.55;32.78;;;;;;;9.30;60.93;100766.38;5013520;28;20021;-76
2021/10/28 06:33:11;;;;;;;44.03;33.50;;;;;;;9.23;61.07;100758.19;5014268;28;20030;-77
2021/10/28 06:35:37;;;;;;;43.40;31.30;;;;;;;8.97;61.04;100720.19;4996616;28;20049;-76
2021/10/28 06:38:03;;;;;;;44.50;32.88;;;;;;;8.94;61.47;100712.56;5014057;28;20095;-75
2021/10/28 06:40:29;;;;;;;40.72;31.70;;;;;;;9.24;61.32;100759.84;5014067;28;20014;-76
2021/10/28 06:42:54;;;;;;;39.88;31.42;;;;;;;8.99;61.12;100713.00;4996582;28;20392;-76
2021/10/28 06:45:21;;;;;;;45.25;32.38;;;;;;;8.94;61.77;100704.69;5014342;28;20022;-76
2021/10/28 06:47:46;;;;;;;37.67;27.35;;;;;;;9.08;61.95;100717.44;5013288;28;20029;-76
2021/10/28 06:50:14;;;;;;;37.72;27.73;;;;;;;9.47;61.93;100770.91;4996305;28;20076;-76
2021/10/28 07:03:29;;;;;;;29.10;23.52;;;;;;;9.50;62.23;100746.09;5013824;28;20108;-76
2021/10/28 07:06:01;;;;;;;29.77;22.00;;;;;;;9.46;62.17;100719.16;5013797;28;20029;-77
2021/10/28 07:08:26;;;;;;;26.85;21.40;;;;;;;9.65;62.30;100723.56;4992318;28;20021;-76
2021/10/28 07:10:54;;;;;;;25.20;20.02;;;;;;;10.14;61.83;100782.28;5011781;28;20029;-75
2021/10/28 07:13:24;;;;;;;26.17;18.90;;;;;;;10.01;61.74;100748.31;5012087;28;20033;-76
2021/10/28 07:15:56;;;;;;;18.40;14.43;;;;;;;10.19;61.85;100751.84;5011316;28;20101;-76
2021/10/28 07:32:05;;;;;;;19.25;14.45;;;;;;;10.36;61.15;100697.47;5012227;28;20033;-80
2021/10/28 08:15:15;;;;;;;13.73;12.18;;;;;;;12.19;59.29;100763.78;5008596;28;20419;-80
2021/10/28 08:20:31;;;;;;;14.23;12.82;;;;;;;11.92;58.53;100696.00;5012560;28;20616;-81
2021/10/28 08:23:08;;;;;;;14.43;11.57;;;;;;;12.36;58.88;100746.97;5009173;28;20103;-80
2021/10/28 08:31:01;;;;;;;17.33;14.27;;;;;;;12.21;58.82;100695.59;4995360;28;20064;-80
2021/10/28 08:33:27;;;;;;;13.40;12.00;;;;;;;12.57;58.57;100746.53;4989498;28;20042;-81
2021/10/28 08:35:59;;;;;;;12.85;11.65;;;;;;;12.39;58.41;100706.09;4992523;28;20026;-80
2021/10/28 08:38:25;;;;;;;15.25;13.20;;;;;;;12.54;57.82;100720.38;4999789;28;20101;-80
2021/10/28 08:40:54;;;;;;;14.35;12.35;;;;;;;12.39;58.08;100695.50;5004399;28;20113;-80
2021/10/28 08:43:21;;;;;;;14.18;11.27;;;;;;;12.36;58.33;100672.81;5009575;28;20105;-81
2021/10/28 08:45:50;;;;;;;15.65;12.80;;;;;;;12.87;58.03;100754.91;4995895;28;20049;-81
2021/10/28 08:48:15;;;;;;;13.90;12.05;;;;;;;12.25;57.77;100643.16;5007482;28;20021;-80
2021/10/28 08:50:54;;;;;;;13.68;12.23;;;;;;;12.82;57.75;100722.75;5008490;28;20510;-79
2021/10/28 08:53:44;;;;;;;16.67;11.30;;;;;;;12.64;57.75;100710.47;5007991;28;20086;-80
2021/10/28 08:56:12;;;;;;;13.52;11.98;;;;;;;13.05;58.03;100731.72;5030306;28;20056;-80
2021/10/28 09:24:24;;;;;;;12.63;10.25;;;;;;;13.90;54.55;100746.28;5008848;28;20427;-76
2021/10/28 09:29:49;;;;;;;14.55;12.02;;;;;;;14.15;54.34;100725.81;4996557;28;20033;-76
2021/10/28 09:46:10;;;;;;;13.32;9.35;;;;;;;14.54;50.85;100675.31;5006576;28;20056;-76
2021/10/28 09:51:03;;;;;;;15.45;9.32;;;;;;;14.86;50.91;100706.19;5010635;28;20038;-77
2021/10/28 09:53:45;;;;;;;13.30;10.30;;;;;;;14.95;50.93;100717.59;5009012;28;20529;-76
2021/10/28 09:59:06;;;;;;;10.80;9.63;;;;;;;14.74;50.40;100648.28;4982063;28;20034;-76
2021/10/28 10:01:38;;;;;;;10.52;8.27;;;;;;;15.13;49.36;100694.19;5005229;28;20014;-75
2021/10/28 10:04:06;;;;;;;11.80;8.02;;;;;;;14.60;47.88;100602.03;5009650;28;20022;-77
2021/10/28 10:06:38;;;;;;;11.48;9.43;;;;;;;14.88;48.07;100645.69;4985925;28;20018;-77
2021/10/28 10:09:04;;;;;;;12.80;8.77;;;;;;;15.12;47.74;100668.59;5007307;28;20022;-77
2021/10/28 10:11:31;;;;;;;8.98;8.00;;;;;;;15.05;47.98;100642.88;5013987;28;20026;-77
2021/10/28 10:13:58;;;;;;;20.08;14.88;;;;;;;15.26;47.51;100658.97;4990762;28;20026;-77
2021/10/28 10:16:23;;;;;;;11.70;8.38;;;;;;;15.30;46.96;100665.59;4987888;28;20033;-77
2021/10/28 10:18:50;;;;;;;12.80;9.77;;;;;;;15.20;47.02;100639.25;5014779;28;20029;-76
2021/10/28 10:21:36;;;;;;;12.30;9.10;;;;;;;15.31;47.29;100622.00;5014374;28;20029;-77
2021/10/28 10:24:15;;;;;;;14.40;12.27;;;;;;;15.37;47.21;100617.78;5023585;28;20474;-77
2021/10/28 11:05:24;;;;;;;18.73;14.50;;;;;;;15.79;43.88;100626.00;5031529;28;20426;-78
2021/10/28 12:45:10;;;;;;;7.72;5.53;;;;;;;15.11;43.97;100463.94;5026465;28;20035;-82
2021/10/28 13:34:51;;;;;;;7.93;6.25;;;;;;;15.50;43.89;100472.41;5000336;28;20026;-76
2021/10/28 13:55:52;;;;;;;9.88;5.88;;;;;;;15.91;43.38;100489.72;5001191;28;20316;-76
2021/10/28 15:27:36;;;;;;;17.15;10.55;;;;;;;15.22;46.70;100496.22;5005146;28;20117;-77
2021/10/28 15:28:08;;;;;;;26.90;13.35;;;;;;;14.15;49.50;100400.97;5013448;28;20572;-77
2021/10/28 15:36:03;;;;;;;24.45;13.00;;;;;;;14.19;50.19;100447.41;5008287;28;20065;-77
2021/10/28 15:39:16;;;;;;;32.92;15.82;;;;;;;14.35;50.63;100478.31;4995959;28;20041;-78
2021/10/28 15:57:23;;;;;;;34.40;20.35;;;;;;;13.82;51.77;100456.97;5012757;28;20521;-78
2021/10/28 16:24:15;;;;;;;76.28;53.13;;;;;;;13.21;53.27;100426.78;5012770;28;20052;-82
2021/10/28 16:26:41;;;;;;;78.03;55.03;;;;;;;13.11;53.26;100420.84;5012446;28;20030;-82
2021/10/28 16:29:08;;;;;;;81.57;52.63;;;;;;;13.74;53.37;100533.16;5012584;28;20029;-82
2021/10/28 16:31:35;;;;;;;87.65;56.78;;;;;;;13.68;53.62;100535.50;4995125;28;20494;-82
2021/10/28 16:34:01;;;;;;;91.15;56.92;;;;;;;13.44;53.69;100502.97;5012752;28;20108;-82
2021/10/28 16:36:27;;;;;;;94.88;59.25;;;;;;;13.63;53.68;100531.72;5012320;28;20052;-82
2021/10/28 16:38:53;;;;;;;84.38;60.22;;;;;;;13.02;54.00;100440.44;4994728;28;20503;-82
2021/10/28 16:41:19;;;;;;;95.35;64.00;;;;;;;13.48;53.91;100520.19;5012168;28;20108;-82
2021/10/28 16:43:45;;;;;;;90.18;55.33;;;;;;;13.47;53.49;100529.16;5012288;28;20017;-82
2021/10/28 16:46:12;;;;;;;92.85;54.72;;;;;;;13.05;53.68;100472.72;5012434;28;20092;-82
2021/10/28 16:48:37;;;;;;;99.03;62.95;;;;;;;13.36;53.65;100541.75;4994600;28;20032;-82
2021/10/28 16:51:04;;;;;;;76.25;49.35;;;;;;;12.73;53.68;100446.34;5012343;28;20481;-82
2021/10/28 16:53:30;;;;;;;72.55;49.20;;;;;;;13.01;53.72;100513.00;5012040;28;20042;-82
2021/10/28 16:55:56;;;;;;;74.18;48.45;;;;;;;12.93;54.32;100495.31;5012323;28;20030;-82
2021/10/28 16:58:22;;;;;;;77.50;54.13;;;;;;;12.71;54.21;100473.00;5012178;28;20026;-82
2021/10/28 17:00:49;;;;;;;83.63;55.40;;;;;;;13.02;54.43;100526.09;5011972;28;20037;-82
2021/10/28 17:03:15;;;;;;;74.32;52.15;;;;;;;13.03;54.77;100532.22;5011921;28;20129;-82
2021/10/28 17:05:42;;;;;;;68.30;46.55;;;;;;;12.76;54.65;100493.69;5012065;28;20469;-82
2021/10/28 17:08:08;;;;;;;57.75;39.75;;;;;;;12.90;54.34;100532.75;4994282;28;20091;-82
2021/10/28 17:10:35;;;;;;;62.70;42.75;;;;;;;12.65;54.61;100500.16;5011220;28;20160;-81
2021/10/28 17:13:01;;;;;;;74.45;49.50;;;;;;;12.93;54.75;100552.78;5011836;28;20029;-82
2021/10/28 17:15:27;;;;;;;50.25;36.03;;;;;;;12.11;54.65;100438.13;5011892;28;20436;-82
2021/10/28 17:17:53;;;;;;;52.22;37.53;;;;;;;12.52;55.31;100509.59;5011538;28;20423;-82
2021/10/28 17:20:20;;;;;;;52.53;38.80;;;;;;;12.29;55.36;100494.38;4994036;28;20105;-82
2021/10/28 17:22:47;;;;;;;48.38;34.63;;;;;;;12.43;54.89;100516.72;4993943;28;20112;-81
2021/10/28 17:25:20;;;;;;;51.28;38.90;;;;;;;12.50;55.43;100536.25;5011761;28;20018;-77
2021/10/28 17:27:48;;;;;;;44.45;34.10;;;;;;;12.51;54.98;100542.38;5011814;28;20023;-77
2021/10/28 17:30:16;;;;;;;51.70;37.75;;;;;;;12.57;55.65;100558.44;5011706;28;20111;-77
2021/10/28 17:32:44;;;;;;;44.75;34.17;;;;;;;12.52;55.50;100549.31;5011789;28;20030;-77
2021/10/28 17:35:11;;;;;;;45.05;33.25;;;;;;;12.37;55.38;100559.75;5011646;28;20025;-77
2021/10/28 17:37:37;;;;;;;42.85;33.75;;;;;;;12.31;55.52;100552.47;5011631;28;20465;-78
2021/10/28 17:40:05;;;;;;;46.53;35.33;;;;;;;12.18;55.67;100541.53;5011653;28;20413;-78
2021/10/28 17:42:33;;;;;;;39.58;31.02;;;;;;;11.76;55.82;100477.06;5010107;28;20022;-77
2021/10/28 17:45:01;;;;;;;48.03;33.95;;;;;;;11.81;55.64;100479.25;5011461;28;20021;-77
2021/10/28 17:47:28;;;;;;;46.22;35.78;;;;;;;11.84;55.32;100489.53;5011099;28;20064;-77
2021/10/28 17:49:59;;;;;;;44.20;32.97;;;;;;;11.88;55.49;100508.53;5011282;28;20025;-78
2021/10/28 17:52:25;;;;;;;37.53;26.92;;;;;;;12.16;56.36;100564.69;5011329;28;20032;-77
2021/10/28 17:54:51;;;;;;;36.42;26.10;;;;;;;12.13;56.21;100562.38;5011392;28;20030;-78
2021/10/28 17:57:18;;;;;;;31.25;25.20;;;;;;;11.30;55.90;100443.25;5011590;28;20093;-78
2021/10/28 17:59:45;;;;;;;33.33;24.25;;;;;;;11.80;56.06;100535.81;5011371;28;20113;-77
2021/10/28 18:02:12;;;;;;;28.40;22.48;;;;;;;11.67;56.03;100525.66;5011118;28;20022;-78
2021/10/28 18:04:38;;;;;;;32.78;23.83;;;;;;;11.37;56.19;100491.84;4993535;28;20481;-78
2021/10/28 18:07:05;;;;;;;28.92;22.45;;;;;;;11.20;56.07;100476.91;5011617;28;20018;-78
2021/10/28 18:09:31;;;;;;;34.47;26.50;;;;;;;11.61;56.56;100538.72;5011536;28;20022;-79
2021/10/28 18:11:57;;;;;;;35.63;24.95;;;;;;;11.18;56.65;100484.19;5011431;28;20470;-77
2021/10/28 18:14:27;;;;;;;37.05;26.35;;;;;;;11.63;56.51;100565.81;5011158;28;20022;-77
2021/10/28 18:16:55;;;;;;;34.42;25.45;;;;;;;11.65;57.31;100577.91;5011030;28;20068;-77
2021/10/28 18:19:21;;;;;;;34.95;26.77;;;;;;;11.56;57.12;100565.63;4993513;28;20029;-78
2021/10/28 18:21:53;;;;;;;34.75;26.75;;;;;;;10.89;56.38;100464.19;5013395;28;20014;-77
2021/10/28 18:24:21;;;;;;;32.83;27.40;;;;;;;11.65;56.58;100587.66;4997503;28;20029;-78
2021/10/28 18:26:47;;;;;;;32.20;24.25;;;;;;;11.22;56.69;100520.72;5015320;28;20097;-77
2021/10/28 18:29:13;;;;;;;29.50;24.40;;;;;;;11.37;57.00;100558.78;5014838;28;20033;-77
2021/10/28 18:31:41;;;;;;;31.33;23.98;;;;;;;11.30;56.92;100549.81;4997319;28;20033;-78
2021/10/28 18:34:08;;;;;;;33.58;24.45;;;;;;;11.09;57.38;100538.78;5014777;28;20076;-77
2021/10/28 18:36:36;;;;;;;27.60;21.95;;;;;;;11.32;57.02;100579.59;4997329;28;20522;-77
2021/10/28 18:39:05;;;;;;;30.70;23.92;;;;;;;10.66;57.60;100473.66;5014855;28;20041;-78
2021/10/28 18:41:32;;;;;;;30.90;23.10;;;;;;;10.79;56.89;100509.22;5014608;28;20025;-78
2021/10/28 18:43:58;;;;;;;30.00;22.65;;;;;;;10.90;57.30;100515.22;4997092;28;20026;-77
2021/10/28 18:46:25;;;;;;;30.60;24.05;;;;;;;11.04;57.71;100538.44;4996999;28;20060;-77
2021/10/28 18:48:54;;;;;;;30.27;22.40;;;;;;;11.20;57.16;100572.06;5014782;28;20030;-78
2021/10/28 18:51:21;;;;;;;27.60;22.60;;;;;;;11.30;57.48;100605.34;5014627;28;20034;-78
2021/10/28 18:53:49;;;;;;;27.15;22.77;;;;;;;10.79;57.33;100506.56;4996968;28;20032;-78
2021/10/28 18:56:17;;;;;;;25.88;21.35;;;;;;;11.20;57.37;100604.63;5014673;28;20566;-77
2021/10/28 18:58:44;;;;;;;31.98;24.35;;;;;;;11.06;57.49;100581.38;4997069;28;20494;-77
2021/10/28 19:01:12;;;;;;;30.52;24.67;;;;;;;11.11;57.74;100595.78;5014299;28;20030;-78
2021/10/28 19:03:40;;;;;;;33.78;25.77;;;;;;;10.62;57.93;100540.97;5014179;28;20085;-77
2021/10/28 19:06:08;;;;;;;36.50;31.05;;;;;;;10.89;58.00;100601.59;5014206;28;20029;-78
2021/10/28 19:08:37;;;;;;;38.60;30.60;;;;;;;10.25;58.11;100520.00;5014193;28;20105;-78
2021/10/28 19:11:09;;;;;;;39.92;30.80;;;;;;;10.30;58.17;100525.66;5014178;28;20029;-77
2021/10/28 19:13:41;;;;;;;35.47;27.92;;;;;;;10.55;58.47;100561.88;5014118;28;20026;-77
2021/10/28 19:16:12;;;;;;;38.65;29.55;;;;;;;10.62;58.38;100575.28;5014101;28;20072;-77
2021/10/28 19:18:42;;;;;;;45.80;31.90;;;;;;;10.35;58.71;100558.53;5014012;28;20414;-78
2021/10/28 19:21:09;;;;;;;38.97;31.08;;;;;;;10.50;58.08;100556.22;4996385;28;20077;-78
2021/10/28 19:23:38;;;;;;;40.78;30.27;;;;;;;10.87;57.85;100622.03;5014156;28;20399;-78
2021/10/28 19:26:04;;;;;;;38.72;30.67;;;;;;;10.41;58.73;100549.22;5014184;28;20100;-77
2021/10/28 19:28:32;;;;;;;41.38;29.67;;;;;;;10.28;58.61;100548.75;5013836;28;20411;-77
2021/10/28 19:31:34;;;;;;;40.85;28.60;;;;;;;10.77;59.02;100616.84;4996129;28;20069;-77
2021/10/28 19:33:54;;;;;;;40.95;28.10;;;;;;;10.63;58.29;100606.84;5010389;28;20034;-77
2021/10/28 19:39:21;;;;;;;33.75;25.95;;;;;;;10.60;58.27;100604.50;5013535;28;20064;-77
2021/10/28 19:47:14;;;;;;;34.97;24.75;;;;;;;10.11;58.46;100561.75;5013410;28;20036;-77
2021/10/28 19:49:46;;;;;;;29.65;23.45;;;;;;;10.41;58.54;100605.47;5013435;28;20105;-77
2021/10/28 19:52:13;;;;;;;28.80;22.10;;;;;;;10.09;58.58;100560.25;5013419;28;20032;-77
2021/10/28 19:54:43;;;;;;;33.72;25.75;;;;;;;9.77;58.71;100510.63;5013210;28;20038;-78
2021/10/28 19:57:30;;;;;;;33.42;25.65;;;;;;;10.44;58.89;100634.22;4995588;28;20030;-77
2021/10/28 20:00:11;;;;;;;34.83;26.42;;;;;;;10.39;58.70;100646.19;4995457;28;20033;-78
2021/10/28 20:20:58;;;;;;;20.35;17.90;;;;;;;10.15;58.88;100644.91;5013170;28;20040;-77
2021/10/28 20:23:23;;;;;;;24.38;16.23;;;;;;;10.12;58.75;100642.56;5012557;28;20030;-77
2021/10/28 20:25:49;;;;;;;19.58;15.80;;;;;;;9.86;59.12;100597.59;4995111;28;20029;-78